Time;durP1;ratioP1;P1;durP2;ratioP2;P2;SDS_P1;SDS_P2;PMS_P1;PMS_P2;Temp;Humidity;BMP_temperature;BMP_pressure;BME280_temperature;BME280_humidity;BME280_pressure;Samples;Min_cycle;Max_cycle;Signal;HPM_P1;HPM_P2
2022/10/31 00:02:14;;;;;;;;;;;;;;;17.11;nan;101877.44;5024520;28;19928;-35
2022/10/31 00:04:39;;;;;;;;;;;;;;;17.06;nan;101880.13;5022881;28;20031;-35
2022/10/31 00:07:05;;;;;;;;;;;;;;;17.03;nan;101875.22;5022904;28;19990;-35
2022/10/31 00:09:30;;;;;;;;;;;;;;;17.01;nan;101876.56;5019872;28;19971;-35
2022/10/31 00:11:55;;;;;;;;;;;;;;;16.98;nan;101883.31;5020566;28;20036;-35
2022/10/31 00:14:20;;;;;;;;;;;;;;;16.97;nan;101886.31;5023872;28;20376;-35
2022/10/31 00:16:46;;;;;;;;;;;;;;;16.96;nan;101890.91;5023975;28;19917;-35
2022/10/31 00:19:11;;;;;;;;;;;;;;;16.95;nan;101889.28;5023676;28;19925;-35
2022/10/31 00:21:37;;;;;;;;;;;;;;;16.95;nan;101885.75;5024192;28;19929;-35
2022/10/31 00:24:02;;;;;;;;;;;;;;;16.93;nan;101886.03;5018635;28;20974;-35
2022/10/31 00:26:28;;;;;;;;;;;;;;;16.92;nan;101884.38;5020115;28;21213;-35
2022/10/31 00:28:53;;;;;;;;;;;;;;;16.92;nan;101884.38;5022283;28;19973;-35
2022/10/31 00:31:19;;;;;;;;;;;;;;;16.90;nan;101889.25;5021806;28;19917;-35
2022/10/31 00:33:44;;;;;;;;;;;;;;;16.88;nan;101892.22;5023885;28;20286;-35
2022/10/31 00:36:19;;;;;;;;;;;;;;;16.85;nan;101895.44;5020584;28;20287;-35
2022/10/31 00:38:45;;;;;;;;;;;;;;;16.83;nan;101891.38;5025588;28;19925;-35
2022/10/31 00:41:11;;;;;;;;;;;;;;;16.81;nan;101882.69;5018045;28;19917;-35
2022/10/31 00:43:36;;;;;;;;;;;;;;;16.81;nan;101888.09;5022427;28;19917;-35
2022/10/31 00:46:01;;;;;;;;;;;;;;;16.78;nan;101884.03;5025954;28;19924;-35
2022/10/31 00:48:27;;;;;;;;;;;;;;;16.75;nan;101884.56;5035738;28;21265;-35
2022/10/31 00:50:52;;;;;;;;;;;;;;;16.72;nan;101889.69;5024699;28;20132;-35
2022/10/31 00:53:18;;;;;;;;;;;;;;;16.69;nan;101890.19;5027901;28;19928;-35
2022/10/31 00:55:43;;;;;;;;;;;;;;;16.67;nan;101885.03;5025914;28;20355;-35
2022/10/31 00:58:08;;;;;;;;;;;;;;;16.65;nan;101881.75;5028296;28;19917;-35
2022/10/31 01:00:34;;;;;;;;;;;;;;;16.63;nan;101882.00;5022614;28;19929;-35
2022/10/31 01:02:59;;;;;;;;;;;;;;;16.61;nan;101878.75;5023598;28;19925;-35
2022/10/31 01:05:24;;;;;;;;;;;;;;;16.60;nan;101887.94;5025552;28;19917;-35
2022/10/31 01:07:50;;;;;;;;;;;;;;;16.60;nan;101887.94;5027052;28;19975;-35
2022/10/31 01:10:15;;;;;;;;;;;;;;;16.61;nan;101892.28;5029032;28;20275;-35
2022/10/31 01:12:41;;;;;;;;;;;;;;;16.60;nan;101890.66;5024614;28;19928;-35
2022/10/31 01:15:08;;;;;;;;;;;;;;;16.61;nan;101889.59;5027747;28;19917;-35
2022/10/31 01:17:33;;;;;;;;;;;;;;;16.60;nan;101890.66;5021712;28;19982;-35
2022/10/31 01:19:58;;;;;;;;;;;;;;;16.60;nan;101887.94;5025544;28;19925;-35
2022/10/31 01:22:24;;;;;;;;;;;;;;;16.59;nan;101886.31;5023890;28;19925;-35
2022/10/31 01:24:49;;;;;;;;;;;;;;;16.57;nan;101888.47;5023581;28;19979;-35
2022/10/31 01:27:14;;;;;;;;;;;;;;;16.56;nan;101886.03;5021972;28;19917;-35
2022/10/31 01:29:39;;;;;;;;;;;;;;;16.54;nan;101897.13;5022501;28;19936;-35
2022/10/31 01:32:05;;;;;;;;;;;;;;;16.52;nan;101896.56;5023340;28;19960;-35
2022/10/31 01:34:30;;;;;;;;;;;;;;;16.49;nan;101888.94;5026150;28;19974;-35
2022/10/31 01:36:55;;;;;;;;;;;;;;;16.47;nan;101887.56;5020612;28;20047;-35
2022/10/31 01:39:21;;;;;;;;;;;;;;;16.44;nan;101880.81;5021181;28;19929;-35
2022/10/31 01:41:51;;;;;;;;;;;;;;;16.42;nan;101884.84;5023658;28;19925;-35
2022/10/31 01:44:16;;;;;;;;;;;;;;;16.36;nan;101883.19;5025752;28;19918;-35
2022/10/31 01:46:41;;;;;;;;;;;;;;;16.36;nan;101891.31;5026325;28;20913;-35
2022/10/31 01:49:15;;;;;;;;;;;;;;;16.36;nan;101894.81;5029314;28;19917;-35
2022/10/31 01:51:47;;;;;;;;;;;;;;;16.35;nan;101895.91;5027226;28;19921;-35
2022/10/31 01:54:15;;;;;;;;;;;;;;;16.36;nan;101899.41;5024065;28;20333;-35
2022/10/31 01:56:42;;;;;;;;;;;;;;;16.36;nan;101899.41;5030837;28;20432;-35
2022/10/31 01:59:11;;;;;;;;;;;;;;;16.35;nan;101905.91;5025730;28;19923;-35
2022/10/31 02:01:37;;;;;;;;;;;;;;;16.33;nan;101903.44;5025337;28;19944;-35
2022/10/31 02:04:02;;;;;;;;;;;;;;;16.33;nan;101909.66;5022033;28;20387;-35
2022/10/31 02:06:31;;;;;;;;;;;;;;;16.31;nan;101908.28;5029433;28;19933;-35
2022/10/31 02:08:57;;;;;;;;;;;;;;;16.30;nan;101912.06;5024956;28;19924;-35
2022/10/31 02:11:23;;;;;;;;;;;;;;;16.27;nan;101904.47;5025615;28;19925;-35
2022/10/31 02:13:48;;;;;;;;;;;;;;;16.26;nan;101913.66;5026447;28;19917;-35
2022/10/31 02:16:14;;;;;;;;;;;;;;;16.23;nan;101920.41;5020800;28;20306;-35
2022/10/31 02:18:39;;;;;;;;;;;;;;;16.20;nan;101914.69;5031401;28;20345;-35
2022/10/31 02:21:30;;;;;;;;;;;;;;;16.17;nan;101916.03;5027034;28;20011;-35
2022/10/31 02:23:55;;;;;;;;;;;;;;;16.13;nan;101914.06;5015319;28;19928;-35
2022/10/31 02:26:24;;;;;;;;;;;;;;;16.11;nan;101916.22;5023065;28;20435;-35
2022/10/31 02:28:55;;;;;;;;;;;;;;;16.06;nan;101919.69;5022360;28;20612;-35
2022/10/31 02:31:20;;;;;;;;;;;;;;;16.02;nan;101922.09;5025662;28;20286;-35
2022/10/31 02:33:58;;;;;;;;;;;;;;;16.01;nan;101919.66;5025843;28;19925;-35
2022/10/31 02:36:29;;;;;;;;;;;;;;;15.96;nan;101920.41;5025989;28;19971;-35
2022/10/31 02:38:54;;;;;;;;;;;;;;;15.95;nan;101918.78;5021457;28;19917;-35
2022/10/31 02:41:26;;;;;;;;;;;;;;;15.93;nan;101920.09;5026008;28;20143;-35
2022/10/31 02:43:51;;;;;;;;;;;;;;;15.92;nan;101924.69;5022133;28;19929;-35
2022/10/31 02:46:43;;;;;;;;;;;;;;;15.91;nan;101917.66;5024262;28;19920;-35
2022/10/31 02:49:18;;;;;;;;;;;;;;;15.90;nan;101920.63;4995310;28;19928;-35
2022/10/31 02:51:44;;;;;;;;;;;;;;;15.88;nan;101928.16;5023807;28;20449;-35
2022/10/31 02:54:20;;;;;;;;;;;;;;;15.87;nan;101921.94;5023533;28;20019;-35
2022/10/31 02:56:47;;;;;;;;;;;;;;;15.87;nan;101926.53;5024499;28;20399;-35
2022/10/31 02:59:13;;;;;;;;;;;;;;;15.85;nan;101934.91;5026595;28;20408;-35
2022/10/31 03:01:50;;;;;;;;;;;;;;;15.87;nan;101942.75;5024976;28;19968;-35
2022/10/31 03:04:19;;;;;;;;;;;;;;;15.88;nan;101937.09;5024548;28;19971;-35
2022/10/31 03:06:54;;;;;;;;;;;;;;;15.89;nan;101938.72;5023790;28;19955;-35
2022/10/31 03:09:24;;;;;;;;;;;;;;;15.91;nan;101943.88;5028071;28;19917;-35
2022/10/31 03:12:07;;;;;;;;;;;;;;;15.91;nan;101933.06;5024027;28;20338;-35
2022/10/31 03:14:32;;;;;;;;;;;;;;;15.88;nan;101934.38;5024713;28;19931;-35
2022/10/31 03:17:00;;;;;;;;;;;;;;;15.87;nan;101931.94;5027473;28;20275;-35
2022/10/31 03:19:34;;;;;;;;;;;;;;;15.85;nan;101932.19;5028092;28;19986;-35
2022/10/31 03:22:06;;;;;;;;;;;;;;;15.84;nan;101937.88;5022597;28;19979;-35
2022/10/31 03:24:34;;;;;;;;;;;;;;;15.82;nan;101935.41;5018053;28;20425;-35
2022/10/31 03:27:00;;;;;;;;;;;;;;;15.80;nan;101931.31;5014605;28;19925;-35
2022/10/31 03:29:27;;;;;;;;;;;;;;;15.78;nan;101939.66;5022379;28;20004;-35
2022/10/31 03:31:58;;;;;;;;;;;;;;;15.77;nan;101932.63;5023102;28;19987;-35
2022/10/31 03:34:23;;;;;;;;;;;;;;;15.75;nan;101929.38;5020826;28;20441;-35
2022/10/31 03:36:50;;;;;;;;;;;;;;;15.73;nan;101925.31;5024903;28;19925;-35
2022/10/31 03:39:18;;;;;;;;;;;;;;;15.71;nan;101928.25;5021766;28;19917;-35
2022/10/31 03:41:45;;;;;;;;;;;;;;;15.70;nan;101932.03;5019660;28;19931;-35
2022/10/31 03:44:16;;;;;;;;;;;;;;;15.69;nan;101933.91;5020220;28;19918;-35
2022/10/31 03:46:42;;;;;;;;;;;;;;;15.69;nan;101936.63;5026258;28;19925;-35
2022/10/31 03:49:08;;;;;;;;;;;;;;;15.69;nan;101938.50;5022117;28;19924;-35
2022/10/31 03:51:36;;;;;;;;;;;;;;;15.68;nan;101940.38;5023897;28;19921;-35
2022/10/31 03:54:07;;;;;;;;;;;;;;;15.67;nan;101933.34;5018200;28;19965;-35
2022/10/31 03:56:53;;;;;;;;;;;;;;;15.66;nan;101937.13;5024084;28;20015;-35
2022/10/31 03:59:26;;;;;;;;;;;;;;;15.65;nan;101934.69;5020339;28;20425;-35
2022/10/31 04:01:55;;;;;;;;;;;;;;;15.62;nan;101938.72;5017895;28;20394;-35
2022/10/31 04:04:21;;;;;;;;;;;;;;;15.62;nan;101940.59;5028831;28;19917;-35
2022/10/31 04:06:47;;;;;;;;;;;;;;;15.62;nan;101937.91;5027395;28;19917;-35
2022/10/31 04:09:13;;;;;;;;;;;;;;;15.63;nan;101937.63;5024060;28;19964;-35
2022/10/31 04:11:44;;;;;;;;;;;;;;;15.64;nan;101941.16;5024794;28;19917;-35
2022/10/31 04:14:11;;;;;;;;;;;;;;;15.65;nan;101943.59;5022483;28;20009;-35
2022/10/31 04:16:37;;;;;;;;;;;;;;;15.67;nan;101943.34;5026671;28;19960;-35
2022/10/31 04:19:02;;;;;;;;;;;;;;;15.70;nan;101949.06;5025009;28;19921;-35
2022/10/31 04:21:29;;;;;;;;;;;;;;;15.70;nan;101949.06;5024135;28;19921;-35
2022/10/31 04:23:54;;;;;;;;;;;;;;;15.70;nan;101949.06;5019205;28;20403;-35
2022/10/31 04:26:20;;;;;;;;;;;;;;;15.70;nan;101946.34;5021029;28;19976;-35
2022/10/31 04:28:45;;;;;;;;;;;;;;;15.72;nan;101951.50;5021558;28;20397;-35
2022/10/31 04:31:11;;;;;;;;;;;;;;;15.72;nan;101946.09;5021923;28;19914;-35
2022/10/31 04:33:37;;;;;;;;;;;;;;;15.73;nan;101950.44;5022426;28;19917;-35
2022/10/31 04:36:02;;;;;;;;;;;;;;;15.71;nan;101947.16;5020220;28;20342;-35
2022/10/31 04:38:27;;;;;;;;;;;;;;;15.70;nan;101950.94;5014934;28;19928;-35
2022/10/31 04:40:53;;;;;;;;;;;;;;;15.70;nan;101943.66;5021632;28;19921;-35
2022/10/31 04:43:18;;;;;;;;;;;;;;;15.70;nan;101942.84;5019776;28;19921;-35
2022/10/31 04:45:43;;;;;;;;;;;;;;;15.70;nan;101957.16;5021528;28;19940;-35
2022/10/31 04:48:08;;;;;;;;;;;;;;;15.68;nan;101961.19;5019181;28;19917;-35
2022/10/31 04:50:34;;;;;;;;;;;;;;;15.66;nan;101969.56;5018562;28;19971;-35
2022/10/31 04:52:59;;;;;;;;;;;;;;;15.65;nan;101969.81;5020327;28;19917;-35
2022/10/31 04:55:24;;;;;;;;;;;;;;;15.64;nan;101974.41;5018389;28;19928;-35
2022/10/31 04:57:52;;;;;;;;;;;;;;;15.65;nan;101967.09;5025274;28;20283;-35
2022/10/31 05:00:19;;;;;;;;;;;;;;;15.64;nan;101970.88;5021570;28;20342;-35
2022/10/31 05:02:45;;;;;;;;;;;;;;;15.62;nan;101971.13;5024025;28;19948;-35
2022/10/31 05:05:11;;;;;;;;;;;;;;;15.62;nan;101967.63;5019914;28;19949;-35
2022/10/31 05:07:40;;;;;;;;;;;;;;;15.62;nan;101975.72;5022879;28;20392;-35
2022/10/31 05:10:05;;;;;;;;;;;;;;;15.60;nan;101967.84;5022632;28;20344;-35
2022/10/31 05:12:31;;;;;;;;;;;;;;;15.59;nan;101973.50;5026983;28;20023;-35
2022/10/31 05:14:56;;;;;;;;;;;;;;;15.56;nan;101973.97;5020997;28;19925;-35
2022/10/31 05:17:21;;;;;;;;;;;;;;;15.54;nan;101971.53;5024582;28;19982;-35
2022/10/31 05:19:47;;;;;;;;;;;;;;;15.53;nan;101980.69;5022772;28;19968;-35
2022/10/31 05:22:12;;;;;;;;;;;;;;;15.52;nan;101970.16;5022685;28;19926;-35
2022/10/31 05:24:39;;;;;;;;;;;;;;;15.52;nan;101972.84;5020144;28;20210;-35
2022/10/31 05:27:05;;;;;;;;;;;;;;;15.50;nan;101973.09;5022426;28;19925;-35
2022/10/31 05:29:33;;;;;;;;;;;;;;;15.48;nan;101977.13;5019617;28;19931;-35
2022/10/31 05:31:58;;;;;;;;;;;;;;;15.47;nan;101979.00;5022445;28;19917;-35
2022/10/31 05:34:23;;;;;;;;;;;;;;;15.42;nan;101968.94;5019904;28;19925;-35
2022/10/31 05:36:49;;;;;;;;;;;;;;;15.42;nan;101973.53;5020110;28;19921;-35
2022/10/31 05:39:14;;;;;;;;;;;;;;;15.40;nan;101976.47;5020574;28;20406;-35
2022/10/31 05:41:39;;;;;;;;;;;;;;;15.38;nan;101977.78;5020770;28;19921;-35
2022/10/31 05:44:05;;;;;;;;;;;;;;;15.36;nan;101990.72;5025951;28;19928;-35
2022/10/31 05:46:30;;;;;;;;;;;;;;;15.33;nan;101992.06;5028148;28;19932;-35
2022/10/31 05:48:55;;;;;;;;;;;;;;;15.34;nan;101990.97;5029009;28;19925;-35
2022/10/31 05:51:21;;;;;;;;;;;;;;;15.35;nan;101992.63;5025864;28;21873;-35
2022/10/31 05:53:47;;;;;;;;;;;;;;;15.36;nan;101986.16;5030864;28;20560;-35
2022/10/31 05:56:12;;;;;;;;;;;;;;;15.36;nan;101988.03;5028563;28;19920;-35
2022/10/31 05:58:37;;;;;;;;;;;;;;;15.36;nan;101991.53;5026133;28;19921;-35
2022/10/31 06:01:02;;;;;;;;;;;;;;;15.34;nan;101996.38;5028357;28;19991;-35
2022/10/31 06:03:28;;;;;;;;;;;;;;;15.35;nan;101992.63;5030184;28;19925;-35
2022/10/31 06:05:53;;;;;;;;;;;;;;;15.35;nan;102002.59;5029797;28;19917;-35
2022/10/31 06:08:18;;;;;;;;;;;;;;;15.34;nan;102009.88;5025020;28;20367;-35
2022/10/31 06:10:44;;;;;;;;;;;;;;;15.34;nan;102007.19;5026157;28;19921;-35
2022/10/31 06:13:09;;;;;;;;;;;;;;;15.35;nan;102006.13;5035819;28;19917;-35
2022/10/31 06:15:35;;;;;;;;;;;;;;;15.35;nan;102003.41;5020538;28;20030;-35
2022/10/31 06:18:04;;;;;;;;;;;;;;;15.34;nan;102007.19;5028130;28;20080;-35
2022/10/31 06:20:30;;;;;;;;;;;;;;;15.35;nan;102006.13;5027868;28;20899;-35
2022/10/31 06:22:56;;;;;;;;;;;;;;;15.36;nan;102006.94;5024589;28;19929;-35
2022/10/31 06:25:21;;;;;;;;;;;;;;;15.34;nan;102009.88;5029624;28;20107;-35
2022/10/31 06:27:46;;;;;;;;;;;;;;;15.36;nan;102012.34;5030039;28;19925;-35
2022/10/31 06:30:12;;;;;;;;;;;;;;;15.39;nan;102014.53;5031575;28;19944;-35
2022/10/31 06:32:37;;;;;;;;;;;;;;;15.42;nan;102016.72;5029142;28;20152;-35
2022/10/31 06:35:02;;;;;;;;;;;;;;;15.45;nan;102020.84;5031782;28;20143;-35
2022/10/31 06:37:28;;;;;;;;;;;;;;;15.47;nan;102018.72;5028451;28;19970;-35
2022/10/31 06:39:53;;;;;;;;;;;;;;;15.49;nan;102024.66;5031837;28;19962;-35
2022/10/31 06:42:18;;;;;;;;;;;;;;;15.53;nan;102023.91;5031913;28;19960;-35
2022/10/31 06:44:44;;;;;;;;;;;;;;;15.57;nan;102029.63;5028227;28;19970;-35
2022/10/31 06:47:09;;;;;;;;;;;;;;;15.62;nan;102035.16;5030478;28;19920;-35
2022/10/31 06:49:34;;;;;;;;;;;;;;;15.65;nan;102029.25;5027475;28;19925;-35
2022/10/31 06:52:00;;;;;;;;;;;;;;;15.68;nan;102032.25;5028769;28;19928;-35
2022/10/31 06:54:25;;;;;;;;;;;;;;;15.71;nan;102036.34;5028935;28;19949;-35
2022/10/31 06:56:50;;;;;;;;;;;;;;;15.75;nan;102042.06;5026227;28;19921;-35
2022/10/31 06:59:15;;;;;;;;;;;;;;;15.79;nan;102043.19;5030023;28;20011;-35
2022/10/31 07:01:41;;;;;;;;;;;;;;;15.82;nan;102048.09;5025067;28;20435;-35
2022/10/31 07:04:07;;;;;;;;;;;;;;;15.88;nan;102056.00;5027762;28;20347;-35
2022/10/31 07:06:33;;;;;;;;;;;;;;;15.96;nan;102066.38;5026817;28;20518;-35
2022/10/31 07:08:58;;;;;;;;;;;;;;;16.04;nan;102061.59;5027969;28;19917;-35
2022/10/31 07:11:23;;;;;;;;;;;;;;;16.11;nan;102067.63;5033716;28;19921;-35
2022/10/31 07:13:49;;;;;;;;;;;;;;;16.18;nan;102069.09;5030097;28;20281;-35
2022/10/31 07:16:14;;;;;;;;;;;;;;;16.22;nan;102077.50;5030029;28;19975;-35
2022/10/31 07:18:39;;;;;;;;;;;;;;;16.22;nan;102069.38;5028098;28;19974;-35
2022/10/31 07:21:05;;;;;;;;;;;;;;;16.22;nan;102081.03;5030144;28;20079;-35
2022/10/31 07:23:30;;;;;;;;;;;;;;;16.28;nan;102080.00;5027347;28;19947;-35
2022/10/31 07:25:56;;;;;;;;;;;;;;;16.37;nan;102084.97;5027631;28;19925;-35
2022/10/31 07:28:22;;;;;;;;;;;;;;;16.46;nan;102083.44;5023328;28;19943;-35
2022/10/31 07:30:54;;;;;;;;;;;;;;;16.54;nan;102088.41;5029469;28;19917;-35
2022/10/31 07:33:19;;;;;;;;;;;;;;;16.65;nan;102079.28;5024846;28;19924;-35
2022/10/31 07:35:45;;;;;;;;;;;;;;;16.79;nan;102082.44;5026313;28;19927;-35
2022/10/31 07:38:11;;;;;;;;;;;;;;;16.92;nan;102073.88;5023870;28;19931;-35
2022/10/31 07:40:37;;;;;;;;;;;;;;;17.06;nan;102068.88;5025289;28;19927;-35
2022/10/31 07:43:02;;;;;;;;;;;;;;;17.21;nan;102066.25;5026877;28;19929;-35
2022/10/31 07:45:28;;;;;;;;;;;;;;;17.36;nan;102070.94;5029847;28;19963;-35
2022/10/31 07:47:53;;;;;;;;;;;;;;;17.50;nan;102064.81;5030197;28;20000;-35
2022/10/31 07:50:23;;;;;;;;;;;;;;;17.68;nan;102069.00;5025607;28;19921;-35
2022/10/31 07:52:57;;;;;;;;;;;;;;;17.86;nan;102077.75;5026814;28;19917;-35
2022/10/31 07:55:22;;;;;;;;;;;;;;;18.03;nan;102072.94;5028105;28;19971;-35
2022/10/31 07:57:55;;;;;;;;;;;;;;;18.18;nan;102069.47;5030549;28;20383;-35
2022/10/31 08:00:20;;;;;;;;;;;;;;;18.30;nan;102060.00;5024014;28;19927;-35
2022/10/31 08:02:45;;;;;;;;;;;;;;;18.42;nan;102066.00;5025000;28;20310;-35
2022/10/31 08:05:10;;;;;;;;;;;;;;;18.57;nan;102069.84;5023269;28;19925;-35
2022/10/31 08:07:37;;;;;;;;;;;;;;;18.69;nan;102079.38;5020772;28;19925;-35
2022/10/31 08:10:02;;;;;;;;;;;;;;;18.80;nan;102077.47;5020229;28;20284;-35
2022/10/31 08:12:28;;;;;;;;;;;;;;;18.90;nan;102085.63;5023716;28;19931;-35
2022/10/31 08:14:53;;;;;;;;;;;;;;;18.99;nan;102089.44;5022325;28;19921;-35
2022/10/31 08:17:18;;;;;;;;;;;;;;;19.09;nan;102096.78;5019364;28;19928;-35
2022/10/31 08:19:43;;;;;;;;;;;;;;;19.18;nan;102088.88;5022317;28;20020;-35
2022/10/31 08:22:09;;;;;;;;;;;;;;;19.27;nan;102084.53;5025018;28;19921;-36
2022/10/31 08:24:34;;;;;;;;;;;;;;;19.37;nan;102086.41;5025024;28;19924;-35
2022/10/31 08:26:59;;;;;;;;;;;;;;;19.46;nan;102088.31;5026253;28;20016;-36
2022/10/31 08:29:25;;;;;;;;;;;;;;;19.52;nan;102078.22;5023035;28;19928;-35
2022/10/31 08:31:50;;;;;;;;;;;;;;;19.63;nan;102084.50;5022926;28;19925;-36
2022/10/31 08:34:15;;;;;;;;;;;;;;;19.78;nan;102081.72;5020840;28;19917;-36
2022/10/31 08:36:42;;;;;;;;;;;;;;;19.94;nan;102085.22;5026032;28;19917;-35
2022/10/31 08:39:07;;;;;;;;;;;;;;;20.08;nan;102087.03;5020818;28;20420;-36
2022/10/31 08:41:32;;;;;;;;;;;;;;;20.24;nan;102093.19;5019328;28;19931;-36
2022/10/31 08:43:58;;;;;;;;;;;;;;;20.37;nan;102089.06;5023318;28;19917;-36
2022/10/31 08:46:23;;;;;;;;;;;;;;;20.54;nan;102097.69;5020862;28;19921;-36
2022/10/31 08:48:48;;;;;;;;;;;;;;;20.69;nan;102096.78;5019901;28;19925;-36
2022/10/31 08:51:14;;;;;;;;;;;;;;;20.84;nan;102101.31;5018066;28;20211;-36
2022/10/31 08:53:39;;;;;;;;;;;;;;;20.94;nan;102095.78;5021491;28;20311;-36
2022/10/31 08:56:04;;;;;;;;;;;;;;;20.99;nan;102091.09;5021079;28;20111;-36
2022/10/31 08:58:30;;;;;;;;;;;;;;;21.08;nan;102085.84;5023607;28;19972;-36
2022/10/31 09:00:56;;;;;;;;;;;;;;;21.19;nan;102095.56;5025366;28;20000;-36
2022/10/31 09:03:23;;;;;;;;;;;;;;;21.32;nan;102086.72;5021976;28;19936;-36
2022/10/31 09:05:49;;;;;;;;;;;;;;;21.50;nan;102100.72;5018270;28;20027;-36
2022/10/31 09:08:15;;;;;;;;;;;;;;;21.59;nan;102099.00;5025045;28;19920;-36
2022/10/31 09:10:40;;;;;;;;;;;;;;;21.68;nan;102097.25;5018867;28;19944;-36
2022/10/31 09:13:08;;;;;;;;;;;;;;;21.82;nan;102095.47;5022510;28;19921;-36
2022/10/31 09:15:35;;;;;;;;;;;;;;;21.97;nan;102105.38;5021019;28;20582;-36
2022/10/31 09:18:00;;;;;;;;;;;;;;;22.11;nan;102105.53;5021854;28;19921;-36
2022/10/31 09:20:26;;;;;;;;;;;;;;;22.20;nan;102099.09;5019962;28;19928;-36
2022/10/31 09:22:58;;;;;;;;;;;;;;;22.29;nan;102108.28;5023209;28;20436;-36
2022/10/31 09:25:24;;;;;;;;;;;;;;;22.40;nan;102106.19;5015307;28;20325;-36
2022/10/31 09:27:49;;;;;;;;;;;;;;;22.52;nan;102117.50;5019403;28;19928;-36
2022/10/31 09:30:15;;;;;;;;;;;;;;;22.66;nan;102111.28;5020623;28;20398;-36
2022/10/31 09:32:40;;;;;;;;;;;;;;;22.79;nan;102113.25;5019895;28;19928;-36
2022/10/31 09:35:06;;;;;;;;;;;;;;;22.87;nan;102116.16;5016844;28;20453;-36
2022/10/31 09:37:31;;;;;;;;;;;;;;;23.00;nan;102120.06;5017283;28;19978;-36
2022/10/31 09:39:56;;;;;;;;;;;;;;;23.16;nan;102115.97;5022577;28;20423;-36
2022/10/31 09:42:36;;;;;;;;;;;;;;;23.29;nan;102113.56;5022501;28;20501;-36
2022/10/31 09:45:01;;;;;;;;;;;;;;;23.40;nan;102120.47;5021230;28;19956;-36
2022/10/31 09:47:26;;;;;;;;;;;;;;;23.55;nan;102113.91;5020725;28;19925;-36
2022/10/31 09:49:58;;;;;;;;;;;;;;;23.65;nan;102116.47;5022304;28;19956;-36
2022/10/31 09:52:26;;;;;;;;;;;;;;;23.77;nan;102106.66;5020029;28;19948;-36
2022/10/31 09:54:54;;;;;;;;;;;;;;;23.88;nan;102109.16;5019095;28;19917;-36
2022/10/31 09:57:24;;;;;;;;;;;;;;;23.99;nan;102107.84;5020594;28;20462;-36
2022/10/31 09:59:49;;;;;;;;;;;;;;;24.06;nan;102106.34;5022686;28;19920;-36
2022/10/31 10:02:15;;;;;;;;;;;;;;;24.14;nan;102104.78;5026208;28;19921;-36
2022/10/31 10:04:48;;;;;;;;;;;;;;;24.25;nan;102108.94;5025205;28;20279;-36
2022/10/31 10:07:16;;;;;;;;;;;;;;;24.39;nan;102112.47;5028147;28;19921;-36
2022/10/31 10:09:41;;;;;;;;;;;;;;;24.49;nan;102110.63;5024116;28;19924;-36
2022/10/31 10:12:34;;;;;;;;;;;;;;;24.59;nan;102113.13;5026198;28;19916;-36
2022/10/31 10:15:06;;;;;;;;;;;;;;;24.72;nan;102115.00;5021692;28;21306;-36
2022/10/31 10:17:34;;;;;;;;;;;;;;;24.81;nan;102109.59;5025960;28;19931;-36
2022/10/31 10:20:09;;;;;;;;;;;;;;;24.90;nan;102115.94;5028802;28;19927;-36
2022/10/31 10:22:47;;;;;;;;;;;;;;;25.03;nan;102120.59;5026424;28;19932;-36
2022/10/31 10:25:12;;;;;;;;;;;;;;;25.17;nan;102113.09;5022350;28;19928;-36
2022/10/31 10:27:47;;;;;;;;;;;;;;;25.32;nan;102120.13;5027647;28;20341;-36
2022/10/31 10:30:22;;;;;;;;;;;;;;;25.48;nan;102115.81;5025179;28;19925;-36
2022/10/31 10:32:50;;;;;;;;;;;;;;;25.58;nan;102118.31;5025888;28;19936;-36
2022/10/31 10:35:42;;;;;;;;;;;;;;;25.67;nan;102123.00;5018523;28;19925;-36
2022/10/31 10:38:26;;;;;;;;;;;;;;;25.73;nan;102121.78;5024649;28;20008;-36
2022/10/31 10:40:53;;;;;;;;;;;;;;;25.77;nan;102117.28;5024645;28;19960;-36
2022/10/31 10:43:25;;;;;;;;;;;;;;;25.84;nan;102109.38;5027884;28;19940;-36
2022/10/31 10:49:12;;;;;;;;;;;;;;;26.07;nan;102112.84;5025072;28;19944;-36
2022/10/31 10:51:48;;;;;;;;;;;;;;;26.21;nan;102108.00;4941718;28;19966;-36
2022/10/31 10:54:13;;;;;;;;;;;;;;;26.31;nan;102117.88;4941213;29;19977;-36
2022/10/31 10:56:45;;;;;;;;;;;;;;;26.40;nan;102110.50;4985344;28;19924;-36
2022/10/31 10:59:12;;;;;;;;;;;;;;;26.52;nan;102096.09;5017530;28;19928;-36
2022/10/31 11:01:38;;;;;;;;;;;;;;;26.67;nan;102107.41;5023778;28;20008;-36
2022/10/31 11:04:24;;;;;;;;;;;;;;;26.77;nan;102100.78;5019438;28;19927;-36
2022/10/31 11:07:00;;;;;;;;;;;;;;;26.92;nan;102094.75;5022036;28;19991;-36
2022/10/31 11:09:25;;;;;;;;;;;;;;;27.03;nan;102100.75;5023170;28;20007;-36
2022/10/31 11:11:51;;;;;;;;;;;;;;;27.12;nan;102096.06;5017446;28;19999;-36
2022/10/31 11:14:17;;;;;;;;;;;;;;;27.17;nan;102101.38;5017655;28;19921;-36
2022/10/31 11:16:44;;;;;;;;;;;;;;;27.27;nan;102106.50;5021418;28;20002;-36
2022/10/31 11:19:20;;;;;;;;;;;;;;;27.32;nan;102092.59;5025990;28;20059;-36
2022/10/31 11:21:46;;;;;;;;;;;;;;;27.40;nan;102099.19;5021630;28;21394;-36
2022/10/31 11:24:14;;;;;;;;;;;;;;;27.47;nan;102101.41;5024604;28;20004;-36
2022/10/31 11:26:41;;;;;;;;;;;;;;;27.51;nan;102088.63;5023357;28;19979;-36
2022/10/31 11:29:14;;;;;;;;;;;;;;;27.59;nan;102088.59;5024544;28;20365;-37
2022/10/31 11:31:40;;;;;;;;;;;;;;;27.66;nan;102096.38;5022880;28;20340;-36
2022/10/31 11:34:07;;;;;;;;;;;;;;;27.72;nan;102088.72;5039321;22;19925;-34
2022/10/31 11:36:34;;;;;;;;;;;;;;;27.81;nan;102092.22;5036013;28;19959;-34
2022/10/31 11:39:01;;;;;;;;;;;;;;;27.89;nan;102081.16;5031498;28;19928;-34
2022/10/31 11:41:33;;;;;;;;;;;;;;;27.99;nan;102082.72;5040164;28;19917;-34
2022/10/31 11:44:04;;;;;;;;;;;;;;;28.12;nan;102080.84;5036796;28;19925;-34
2022/10/31 11:46:29;;;;;;;;;;;;;;;28.17;nan;102081.44;5008628;28;19925;-34
2022/10/31 11:48:55;;;;;;;;;;;;;;;28.29;nan;102076.03;5010758;28;20622;-33
2022/10/31 11:51:23;;;;;;;;;;;;;;;28.42;nan;102076.13;5011871;28;19921;-33
2022/10/31 11:53:53;;;;;;;;;;;;;;;28.53;nan;102075.34;5013799;28;19921;-33
2022/10/31 11:56:19;;;;;;;;;;;;;;;28.61;nan;102076.44;5008941;28;19948;-34
2022/10/31 11:58:54;;;;;;;;;;;;;;;28.74;nan;102074.53;5019898;28;20398;-34
2022/10/31 12:01:23;;;;;;;;;;;;;;;28.87;nan;102078.94;5013843;28;19932;-34
2022/10/31 12:03:54;;;;;;;;;;;;;;;28.96;nan;102076.91;5015863;28;20453;-34
2022/10/31 12:06:22;;;;;;;;;;;;;;;29.06;nan;102078.41;5006018;28;20433;-34
2022/10/31 12:08:47;;;;;;;;;;;;;;;29.19;nan;102075.34;5013026;28;20462;-33
2022/10/31 12:11:25;;;;;;;;;;;;;;;29.35;nan;102075.50;5012757;28;20055;-33
2022/10/31 12:13:50;;;;;;;;;;;;;;;29.51;nan;102077.59;5014084;28;20349;-34
2022/10/31 12:16:24;;;;;;;;;;;;;;;29.63;nan;102072.88;5002897;28;19917;-34
2022/10/31 12:18:56;;;;;;;;;;;;;;;29.73;nan;102071.59;5006521;28;20148;-35
2022/10/31 12:21:21;;;;;;;;;;;;;;;29.88;nan;102073.66;5008339;28;19922;-35
2022/10/31 12:23:46;;;;;;;;;;;;;;;30.05;nan;102078.97;5013890;28;19932;-35
2022/10/31 12:26:11;;;;;;;;;;;;;;;30.22;nan;102080.66;5017360;28;19924;-35
2022/10/31 12:28:43;;;;;;;;;;;;;;;30.40;nan;102083.13;5014179;28;19921;-35
2022/10/31 12:31:28;;;;;;;;;;;;;;;30.56;nan;102078.47;5013167;28;20362;-35
2022/10/31 12:34:12;;;;;;;;;;;;;;;30.71;nan;102077.72;4990693;28;19928;-35
2022/10/31 12:36:58;;;;;;;;;;;;;;;30.86;nan;102068.63;5015685;28;19925;-35
2022/10/31 12:39:32;;;;;;;;;;;;;;;31.05;nan;102061.59;5007070;28;19932;-35
2022/10/31 12:42:16;;;;;;;;;;;;;;;31.21;nan;102070.75;5006799;28;19929;-35
2022/10/31 12:44:41;;;;;;;;;;;;;;;31.33;nan;102070.66;5014346;28;19921;-35
2022/10/31 12:47:07;;;;;;;;;;;;;;;31.41;nan;102069.66;5008501;28;19925;-35
2022/10/31 12:49:51;;;;;;;;;;;;;;;31.46;nan;102074.94;5018884;28;20268;-35
2022/10/31 12:52:35;;;;;;;;;;;;;;;31.51;nan;102068.34;5015201;28;19963;-35
2022/10/31 12:55:03;;;;;;;;;;;;;;;31.55;nan;102067.25;5023258;28;19952;-35
2022/10/31 12:57:51;;;;;;;;;;;;;;;31.63;nan;102067.44;5020599;28;20459;-35
2022/10/31 13:00:18;;;;;;;;;;;;;;;31.72;nan;102071.63;5012076;28;19917;-35
2022/10/31 13:03:09;;;;;;;;;;;;;;;31.78;nan;102063.84;5011229;28;19928;-35
2022/10/31 13:05:40;;;;;;;;;;;;;;;31.84;nan;102060.44;4989614;28;19975;-35